Aeroporto :
LOGIN :

Iscrizione | Disclaimer

   EN    FR    IT 

 










Sommario :    VFR   VFR Marginale   IFR   IFR Intensivo   IFR Molto Intensivo
Visibilità : 
Base nubi : 
>= 8 km
>= 3000ft
5 / 8 km
1000 / 3000 ft
1500m / 5 km
500 / 1000 ft
800 / 1500m
200 / 500 ft
< 800m
< 200 ft
Simboli :   Temporali  Nebbia  Neve Forte  Precipitazioni Forti  Vento > 20 kt
SIGMETs :   Varie  Temporali  Ghiacco  Turbolenza  Onda orograficha  Ceneri Vulcaniche






- Altitudine del aeroporto : 1455 ft


ETIH - Hohenfels Army Air Field

ULTIMO METAR :
  • 200156Z AUTO 25005KT 8000 -SN BR FEW007 OVC011 01/M01 A3013 RMK AO2 FZRAE0058RAB0058E04SNB04E13RAB13E20SNB20E30RAB30E30FZRAB30E44RAB44E50SNB50 SLP227 P0004 T00071009 $

METARs OBSOLETI :
  • 200144Z AUTO 23007KT 9999 -RA FEW007 OVC012 01/M01 A3013 RMK AO2 FZRAE0058RAB0058E04SNB04E13RAB13E20SNB20E30RAB30E30FZRAB30E44RAB44 SLP227 $
  • 200131Z AUTO 24008KT 9000 -FZRA BR FEW007 OVC012 01/M01 A3013 RMK AO2 FZRAE0058RAB0058E04SNB04E13RAB13E20SNB20E30RAB30E30FZRAB30 SLP227 $
  • 200120Z AUTO 23007KT 9999 -SN FEW007 OVC014 01/M01 A3013 RMK AO2 FZRAE0058RAB0058E04SNB04E13RAB13 SLP227 $
  • 200113Z AUTO 23007KT 9000 -RA BR FEW008 OVC014 01/M01 A3013 RMK AO2 FZRAE0058RAB0058E04SNB04E13RAB13 SLP227 $
  • 200104Z AUTO 24009G16KT 9999 -SN FEW008 OVC015 01/M01 A3013 RMK AO2 FZRAE0057RAB0057 SLP227 $
  • 200057Z AUTO 24008KT 9999 -RA FEW009 OVC015 01/M01 A3012 RMK AO2 SLP224 $
  • 200043Z AUTO 24007KT 9999 -FZRA OVC015 01/M01 A3012 RMK AO2 RAE02RAB02E02RAB15 SLP226 $
  • 200015Z AUTO 24005KT 9999 -RA OVC016 02/M02 A3013 RMK AO2 RAE02RAB02E02RAB15 SLP227 $
  • 200002Z AUTO 24005KT 9999 OVC018 01/M01 A3013 RMK AO2 RAE02RAB02 SLP229 $
  • 192330Z AUTO 25007KT 9999 -RA BKN018 OVC037 02/M02 A3013 RMK AO2 RAB15 CIG 018V037 BKN V SCT SLP227 $
  • 192315Z AUTO 25009G18KT 9999 -RA SCT018 SCT025 OVC034 02/M02 A3013 RMK AO2 RAB15 SLP227 $

Previsioni scadute.



MetMap, La meteo Aeronautica in un colpo d'occhio ! - Copyright ORBIFLY Dicembre 2007 - Disclaimer

ORBIFLY MET'MAP TEAM :

Programmazione e sviluppo : Alexandra Zaïnal
Concezione : Baudouin d'Aumeries
Aiuto per la programmazione : Marc-Olivier Méhu
Supporto tecnico e logistico : Manuel Goepfert
Aiuto per la traduzione : Arnaldo La Scala

Contatto : metmap@orbifly.com




FONTI E CREDITI :

   NOAA